createdAt,value
2023-04-27T00:00:13.663Z,94825.34
2023-04-27T00:02:42.373Z,94816.75
2023-04-27T00:05:12.106Z,94817.53
2023-04-27T00:07:40.544Z,94809.13
2023-04-27T00:10:10.218Z,94816.50
2023-04-27T00:12:38.536Z,94815.44
2023-04-27T00:15:07.773Z,94816.19
2023-04-27T00:17:37.693Z,94816.13
2023-04-27T00:20:08.357Z,94814.78
2023-04-27T00:22:36.749Z,94814.50
2023-04-27T00:25:05.293Z,94811.88
2023-04-27T00:27:33.658Z,94812.72
2023-04-27T00:30:01.990Z,94810.31
2023-04-27T00:32:30.313Z,94804.06
2023-04-27T00:34:59.983Z,94811.88
2023-04-27T00:37:28.406Z,94811.63
2023-04-27T00:39:56.752Z,94805.25
2023-04-27T00:42:25.210Z,94819.81
2023-04-27T00:44:53.540Z,94814.09
2023-04-27T00:47:21.989Z,94819.31
2023-04-27T00:49:50.710Z,94819.75
2023-04-27T00:52:20.617Z,94823.25
2023-04-27T00:54:52.026Z,94818.22
2023-04-27T00:57:20.662Z,94820.53
2023-04-27T00:59:49.181Z,94821.63
2023-04-27T01:02:17.770Z,94826.09
2023-04-27T01:04:46.180Z,94827.16
2023-04-27T01:07:14.514Z,94826.88
2023-04-27T01:09:44.237Z,94834.00
2023-04-27T01:12:12.522Z,94835.00
2023-04-27T01:14:40.770Z,94839.19
2023-04-27T01:17:09.258Z,94839.38
2023-04-27T01:19:38.371Z,94835.81
2023-04-27T01:22:07.221Z,94837.38
2023-04-27T01:24:36.869Z,94837.38
2023-04-27T01:27:05.475Z,94839.38
2023-04-27T01:29:33.827Z,94840.91
2023-04-27T01:32:02.119Z,94848.28
2023-04-27T01:34:30.426Z,94847.28
2023-04-27T01:36:58.646Z,94853.34
2023-04-27T01:39:27.405Z,94848.34
2023-04-27T01:41:58.472Z,94851.53
2023-04-27T01:44:27.025Z,94839.44
2023-04-27T01:46:55.282Z,94838.88
2023-04-27T01:49:23.539Z,94852.63
2023-04-27T01:51:51.821Z,94853.16
2023-04-27T01:54:20.108Z,94852.66
2023-04-27T01:56:48.421Z,94853.69
2023-04-27T01:59:18.036Z,94844.72
2023-04-27T02:01:46.291Z,94850.72
2023-04-27T02:04:15.248Z,94845.72
2023-04-27T02:06:43.779Z,94855.16
2023-04-27T02:09:12.292Z,94844.38
2023-04-27T02:11:40.867Z,94845.38
2023-04-27T02:14:09.214Z,94845.66
2023-04-27T02:16:39.019Z,94854.34
2023-04-27T02:19:07.491Z,94849.13
2023-04-27T02:21:36.429Z,94853.28
2023-04-27T02:24:05.382Z,94750.94
2023-04-27T02:26:33.663Z,94851.50
2023-04-27T02:29:03.094Z,94851.00
2023-04-27T02:31:32.056Z,94838.63
2023-04-27T02:34:01.807Z,94863.16
2023-04-27T02:36:30.106Z,94861.28
2023-04-27T02:38:58.462Z,94852.06
2023-04-27T02:41:28.239Z,94856.34
2023-04-27T02:43:56.462Z,94835.22
2023-04-27T02:46:25.169Z,94854.22
2023-04-27T02:48:53.427Z,94869.28
2023-04-27T02:51:23.119Z,94864.78
2023-04-27T02:53:51.472Z,94872.47
2023-04-27T02:56:19.695Z,94865.84
2023-04-27T02:58:48.113Z,94873.75
2023-04-27T03:01:17.504Z,94872.16
2023-04-27T03:03:49.052Z,94873.75
2023-04-27T03:06:17.830Z,94878.75
2023-04-27T03:08:47.718Z,94875.88
2023-04-27T03:11:16.237Z,94876.13
2023-04-27T03:13:44.575Z,94885.38
2023-04-27T03:16:13.212Z,94882.47
2023-04-27T03:18:42.022Z,94862.94
2023-04-27T03:21:11.301Z,94881.16
2023-04-27T03:23:40.306Z,94885.88
2023-04-27T03:26:11.006Z,94889.31
2023-04-27T03:28:39.587Z,94889.06
2023-04-27T03:31:08.288Z,94890.13
2023-04-27T03:33:36.802Z,94891.16
2023-04-27T03:36:06.789Z,94908.06
2023-04-27T03:38:36.436Z,94906.47
2023-04-27T03:41:04.657Z,94834.16
2023-04-27T03:43:34.495Z,94913.59
2023-04-27T03:46:02.945Z,94911.25
2023-04-27T03:48:31.283Z,94914.94
2023-04-27T03:50:59.581Z,94916.25
2023-04-27T03:53:27.788Z,94880.88
2023-04-27T03:55:56.196Z,94917.56
2023-04-27T03:58:24.475Z,94918.63
2023-04-27T04:00:54.784Z,94932.41
2023-04-27T04:03:23.228Z,94934.22
2023-04-27T04:05:51.757Z,94939.50
2023-04-27T04:08:20.034Z,94934.75
2023-04-27T04:10:48.303Z,94943.47
2023-04-27T04:13:16.653Z,94941.34
2023-04-27T04:15:44.982Z,94951.41
2023-04-27T04:18:14.653Z,94949.81
2023-04-27T04:20:44.008Z,94947.94
2023-04-27T04:23:12.317Z,94957.75
2023-04-27T04:25:41.853Z,94889.06
2023-04-27T04:28:10.227Z,94933.16
2023-04-27T04:30:39.752Z,94964.56
2023-04-27T04:33:08.838Z,94975.31
2023-04-27T04:35:41.620Z,94978.16
2023-04-27T04:38:10.234Z,94983.00
2023-04-27T04:40:40.269Z,94971.94
2023-04-27T04:43:08.604Z,94977.22
2023-04-27T04:45:37.210Z,94974.59
2023-04-27T04:48:05.812Z,94995.25
2023-04-27T04:50:34.281Z,94979.94
2023-04-27T04:53:03.918Z,94986.81
2023-04-27T04:55:32.171Z,94987.06
2023-04-27T04:58:00.463Z,94984.38
2023-04-27T05:00:28.907Z,94983.00
2023-04-27T05:02:57.383Z,94981.69
2023-04-27T05:05:26.150Z,94981.03
2023-04-27T05:07:54.501Z,94988.19
2023-04-27T05:10:24.180Z,94981.06
2023-04-27T05:15:39.324Z,94987.09
2023-04-27T05:18:07.724Z,94983.22
2023-04-27T05:20:36.653Z,94988.63
2023-04-27T05:23:05.147Z,94915.69
2023-04-27T05:25:41.527Z,94988.41
2023-04-27T05:28:10.141Z,94990.63
2023-04-27T05:30:38.514Z,94987.91
2023-04-27T05:33:07.081Z,94975.19
2023-04-27T05:35:35.791Z,94980.75
2023-04-27T05:38:04.467Z,94875.66
2023-04-27T05:40:34.125Z,94980.47
2023-04-27T05:43:05.792Z,94974.38
2023-04-27T05:45:34.532Z,94974.25
2023-04-27T05:48:02.830Z,94975.81
2023-04-27T05:50:31.244Z,94986.69
2023-04-27T05:52:59.452Z,94983.75
2023-04-27T05:55:27.772Z,94976.16
2023-04-27T05:58:07.096Z,94991.69
2023-04-27T06:00:36.667Z,94996.16
2023-04-27T06:03:05.273Z,94995.53
2023-04-27T06:05:34.474Z,94966.03
2023-04-27T06:08:02.942Z,94988.78
2023-04-27T06:10:31.259Z,94990.75
2023-04-27T06:13:00.999Z,94997.47
2023-04-27T06:15:29.490Z,94993.09
2023-04-27T06:17:57.969Z,94999.50
2023-04-27T06:20:26.511Z,94998.25
2023-04-27T06:22:54.831Z,94927.91
2023-04-27T06:25:27.053Z,94941.81
2023-04-27T06:27:55.775Z,94975.91
2023-04-27T06:30:25.801Z,94959.66
2023-04-27T06:32:54.058Z,94978.41
2023-04-27T06:35:22.378Z,94979.44
2023-04-27T06:37:51.427Z,94983.31
2023-04-27T06:40:19.814Z,94981.84
2023-04-27T06:42:48.102Z,94972.59
2023-04-27T06:45:16.386Z,94990.06
2023-04-27T06:47:46.093Z,94977.78
2023-04-27T06:50:14.388Z,94835.34
2023-04-27T06:52:42.698Z,94985.94
2023-04-27T06:55:11.578Z,94976.84
2023-04-27T06:57:39.919Z,94977.25
2023-04-27T07:00:09.429Z,94980.44
2023-04-27T07:02:37.782Z,94964.03
2023-04-27T07:05:07.964Z,94986.28
2023-04-27T07:07:36.290Z,94984.50
2023-04-27T07:10:05.251Z,94981.75
2023-04-27T07:12:33.515Z,94910.34
2023-04-27T07:15:03.794Z,94984.75
2023-04-27T07:17:32.121Z,94982.81
2023-04-27T07:20:00.666Z,94978.84
2023-04-27T07:22:30.325Z,94971.03
2023-04-27T07:24:58.530Z,94971.13
2023-04-27T07:27:27.557Z,94951.66
2023-04-27T07:29:56.810Z,94964.13
2023-04-27T07:32:25.614Z,94966.72
2023-04-27T07:34:56.229Z,94967.19
2023-04-27T07:37:24.490Z,94965.88
2023-04-27T07:39:54.583Z,94961.28
2023-04-27T07:42:23.689Z,94952.06
2023-04-27T07:44:52.615Z,94970.22
2023-04-27T07:47:22.048Z,94962.41
2023-04-27T07:49:50.423Z,94958.47
2023-04-27T07:52:18.661Z,94956.78
2023-04-27T07:54:47.078Z,94954.91
2023-04-27T07:57:16.822Z,94953.50
2023-04-27T07:59:45.991Z,94950.84
2023-04-27T08:02:19.578Z,94944.28
2023-04-27T08:04:49.549Z,94943.31
2023-04-27T08:07:19.221Z,94948.38
2023-04-27T08:09:47.949Z,94951.28
2023-04-27T08:12:17.711Z,94951.47
2023-04-27T08:14:45.910Z,94949.78
2023-04-27T08:17:14.177Z,94951.03
2023-04-27T08:19:42.673Z,94888.63
2023-04-27T08:22:11.076Z,94940.28
2023-04-27T08:24:39.363Z,94951.53
2023-04-27T08:27:08.231Z,94945.56
2023-04-27T08:29:37.976Z,94866.19
2023-04-27T08:32:07.092Z,94944.81
2023-04-27T08:34:35.323Z,94946.66
2023-04-27T08:37:04.605Z,94921.22
2023-04-27T08:39:33.038Z,94933.44
2023-04-27T08:42:01.438Z,94941.34
2023-04-27T08:44:30.812Z,94933.91
2023-04-27T08:47:00.659Z,94941.03
2023-04-27T08:49:28.952Z,94929.47
2023-04-27T08:51:57.197Z,94939.66
2023-04-27T08:54:25.783Z,94925.31
2023-04-27T08:56:54.090Z,94936.22
2023-04-27T08:59:22.322Z,94929.94
2023-04-27T09:01:51.316Z,94918.09
2023-04-27T09:04:21.237Z,94925.56
2023-04-27T09:06:50.294Z,94930.06
2023-04-27T09:09:25.453Z,94931.03
2023-04-27T09:11:53.845Z,94929.81
2023-04-27T09:14:23.886Z,94922.22
2023-04-27T09:16:59.563Z,94934.47
2023-04-27T09:19:30.711Z,94924.94
2023-04-27T09:22:09.567Z,94860.78
2023-04-27T09:24:38.207Z,94935.31
2023-04-27T09:27:09.109Z,94875.91
2023-04-27T09:29:38.682Z,94935.25
2023-04-27T09:32:17.892Z,94934.38
2023-04-27T09:34:48.220Z,94906.47
2023-04-27T09:37:17.743Z,94933.81
2023-04-27T09:39:46.877Z,94896.28
2023-04-27T09:42:16.260Z,94933.34
2023-04-27T09:44:44.627Z,94930.94
2023-04-27T09:47:15.064Z,94923.59
2023-04-27T09:49:43.390Z,94924.75
2023-04-27T09:52:13.274Z,94914.97
2023-04-27T09:54:42.416Z,94911.09
2023-04-27T09:57:25.342Z,94909.72
2023-04-27T10:00:11.133Z,94915.69
2023-04-27T10:02:53.222Z,94844.34
2023-04-27T10:05:39.614Z,94899.72
2023-04-27T10:08:11.723Z,94909.38
2023-04-27T10:10:49.495Z,94787.59
2023-04-27T10:13:26.383Z,94885.16
2023-04-27T10:15:55.668Z,94864.06
2023-04-27T10:18:28.844Z,94848.28
2023-04-27T10:20:57.200Z,94890.00
2023-04-27T10:23:27.957Z,94894.75
2023-04-27T10:25:57.404Z,94890.69
2023-04-27T10:28:25.624Z,94896.34
2023-04-27T10:30:53.898Z,94890.56
2023-04-27T10:33:25.356Z,94888.56
2023-04-27T10:35:58.706Z,94887.16
2023-04-27T10:38:31.686Z,94884.19
2023-04-27T10:41:02.399Z,94893.91
2023-04-27T10:43:31.964Z,94883.22
2023-04-27T10:46:09.660Z,94891.75
2023-04-27T10:48:38.573Z,94888.22
2023-04-27T10:51:07.077Z,94885.19
2023-04-27T10:53:37.499Z,94883.41
2023-04-27T10:56:07.288Z,94869.44
2023-04-27T10:58:48.339Z,94892.03
2023-04-27T11:01:25.962Z,94876.56
2023-04-27T11:03:57.325Z,94874.22
2023-04-27T11:06:28.296Z,94869.56
2023-04-27T11:08:58.440Z,94872.47
2023-04-27T11:11:26.863Z,94869.41
2023-04-27T11:13:56.636Z,94863.91
2023-04-27T11:16:25.403Z,94868.03
2023-04-27T11:18:53.762Z,94861.16
2023-04-27T11:21:23.744Z,94864.00
2023-04-27T11:23:52.119Z,94865.78
2023-04-27T11:26:23.921Z,94828.75
2023-04-27T11:29:00.198Z,94863.78
2023-04-27T11:31:29.229Z,94871.00
2023-04-27T11:33:57.551Z,94869.00
2023-04-27T11:36:27.284Z,94862.84
2023-04-27T11:39:00.166Z,94873.59
2023-04-27T11:41:36.493Z,94837.84
2023-04-27T11:44:08.674Z,94851.56
2023-04-27T11:46:38.298Z,94815.13
2023-04-27T11:49:08.972Z,94863.22
2023-04-27T11:51:37.863Z,94857.81
2023-04-27T11:54:07.702Z,94861.75
2023-04-27T11:56:38.660Z,94861.66
2023-04-27T11:59:06.966Z,94851.22
2023-04-27T12:01:38.266Z,94825.50
2023-04-27T12:04:06.978Z,94859.38
2023-04-27T12:06:35.415Z,94854.97
2023-04-27T12:09:04.450Z,94858.78
2023-04-27T12:11:32.902Z,94838.91
2023-04-27T12:14:03.514Z,94859.50
2023-04-27T12:16:32.068Z,94846.66
2023-04-27T12:19:00.320Z,94781.84
2023-04-27T12:21:28.629Z,94861.97
2023-04-27T12:23:56.962Z,94804.78
2023-04-27T12:26:25.750Z,94826.09
2023-04-27T12:28:54.105Z,94856.41
2023-04-27T12:31:27.734Z,94868.25
2023-04-27T12:33:56.292Z,94823.53
2023-04-27T12:36:24.679Z,94856.97
2023-04-27T12:38:53.542Z,94861.94
2023-04-27T12:41:23.404Z,94862.00
2023-04-27T12:43:51.731Z,94853.44
2023-04-27T12:46:20.125Z,94850.31
2023-04-27T12:48:50.009Z,94851.91
2023-04-27T12:51:18.477Z,94854.97
2023-04-27T12:53:46.749Z,94855.56
2023-04-27T12:56:15.019Z,94847.56
2023-04-27T12:58:43.377Z,94870.44
2023-04-27T13:01:15.074Z,94859.91
2023-04-27T13:03:43.725Z,94866.94
2023-04-27T13:06:13.773Z,94866.25
2023-04-27T13:08:43.400Z,94866.19
2023-04-27T13:11:11.766Z,94870.06
2023-04-27T13:13:40.038Z,94818.00
2023-04-27T13:16:08.616Z,94887.47
2023-04-27T13:18:37.213Z,94896.47
2023-04-27T13:21:07.481Z,94911.88
2023-04-27T13:23:37.211Z,94905.94
2023-04-27T13:26:07.146Z,94763.72
2023-04-27T13:28:35.531Z,94913.50
2023-04-27T13:31:04.285Z,94914.78
2023-04-27T13:33:34.238Z,94910.03
2023-04-27T13:36:04.004Z,94919.34
2023-04-27T13:38:32.387Z,94924.06
2023-04-27T13:41:02.245Z,94925.84
2023-04-27T13:43:31.283Z,94934.50
2023-04-27T13:46:01.071Z,94942.78
2023-04-27T13:48:30.251Z,94942.81
2023-04-27T13:50:59.216Z,94949.25
2023-04-27T13:53:28.093Z,94966.34
2023-04-27T13:55:57.637Z,94892.50
2023-04-27T13:58:28.886Z,94959.84
2023-04-27T14:00:57.492Z,94990.84
2023-04-27T14:03:27.075Z,94998.22
2023-04-27T14:05:55.487Z,94990.03
2023-04-27T14:08:24.060Z,94994.91
2023-04-27T14:10:52.339Z,95001.47
2023-04-27T14:13:20.940Z,95012.56
2023-04-27T14:15:50.790Z,94965.78
2023-04-27T14:18:19.180Z,95017.44
2023-04-27T14:20:47.489Z,95021.13
2023-04-27T14:23:15.999Z,95024.44
2023-04-27T14:25:44.278Z,95026.91
2023-04-27T14:28:14.905Z,94989.84
2023-04-27T14:30:43.368Z,94933.19
2023-04-27T14:33:13.137Z,95053.06
2023-04-27T14:35:41.524Z,95049.59
2023-04-27T14:38:10.012Z,95027.56
2023-04-27T14:40:38.662Z,95050.78
2023-04-27T14:43:07.062Z,95060.59
2023-04-27T14:45:47.779Z,95063.50
2023-04-27T14:48:21.210Z,95032.50
2023-04-27T14:50:49.624Z,95068.38
2023-04-27T14:53:17.941Z,95051.69
2023-04-27T14:55:46.929Z,95063.38
2023-04-27T14:58:15.589Z,95022.25
2023-04-27T15:00:43.918Z,95070.72
2023-04-27T15:03:12.492Z,95061.28
2023-04-27T15:05:42.442Z,95069.09
2023-04-27T15:08:10.833Z,95064.84
2023-04-27T15:10:39.309Z,95066.63
2023-04-27T15:13:07.699Z,95056.94
2023-04-27T15:15:36.071Z,95066.81
2023-04-27T15:18:04.610Z,95066.75
2023-04-27T15:20:33.027Z,95067.91
2023-04-27T15:23:02.745Z,95066.25
2023-04-27T15:25:31.352Z,95005.44
2023-04-27T15:28:01.336Z,95067.22
2023-04-27T15:30:29.584Z,95057.97
2023-04-27T15:32:57.918Z,95070.84
2023-04-27T15:35:27.590Z,95074.34
2023-04-27T15:37:55.962Z,95074.03
2023-04-27T15:40:26.013Z,95075.50
2023-04-27T15:42:54.434Z,95053.69
2023-04-27T15:45:22.884Z,95071.03
2023-04-27T15:47:51.369Z,95075.09
2023-04-27T15:50:19.763Z,95023.72
2023-04-27T15:52:48.228Z,95073.56
2023-04-27T15:55:16.738Z,95080.59
2023-04-27T15:57:46.430Z,95054.59
2023-04-27T16:00:17.020Z,95092.44
2023-04-27T16:02:45.407Z,95085.34
2023-04-27T16:05:13.763Z,95094.09
2023-04-27T16:07:46.189Z,95086.53
2023-04-27T16:10:14.822Z,95025.22
2023-04-27T16:12:43.091Z,95101.19
2023-04-27T16:15:13.296Z,95105.25
2023-04-27T16:17:41.860Z,95104.63
2023-04-27T16:20:10.878Z,95112.28
2023-04-27T16:22:39.454Z,95110.34
2023-04-27T16:25:10.894Z,95118.91
2023-04-27T16:27:39.443Z,95121.09
2023-04-27T16:30:09.058Z,95131.25
2023-04-27T16:32:39.156Z,95131.66
2023-04-27T16:35:08.533Z,95134.22
2023-04-27T16:37:36.823Z,95123.44
2023-04-27T16:40:07.846Z,95135.16
2023-04-27T16:42:36.166Z,95069.06
2023-04-27T16:45:04.772Z,95140.78
2023-04-27T16:47:33.106Z,95106.59
2023-04-27T16:50:02.754Z,95146.47
2023-04-27T16:52:31.170Z,95084.50
2023-04-27T16:54:59.443Z,95152.63
2023-04-27T16:57:27.724Z,95108.09
2023-04-27T16:59:56.560Z,95087.97
2023-04-27T17:02:25.814Z,95162.38
2023-04-27T17:04:54.953Z,95171.72
2023-04-27T17:07:25.693Z,95176.31
2023-04-27T17:09:54.548Z,95124.44
2023-04-27T17:12:22.802Z,95185.91
2023-04-27T17:14:51.287Z,95153.88
2023-04-27T17:17:19.670Z,95191.75
2023-04-27T17:19:48.047Z,95194.06
2023-04-27T17:22:16.769Z,95192.56
2023-04-27T17:24:46.439Z,95184.16
2023-04-27T17:27:14.745Z,95205.75
2023-04-27T17:29:43.170Z,95155.41
2023-04-27T17:32:11.575Z,95206.91
2023-04-27T17:34:41.695Z,95221.28
2023-04-27T17:37:11.328Z,95208.41
2023-04-27T17:39:39.685Z,95213.47
2023-04-27T17:42:12.498Z,95205.53
2023-04-27T17:44:42.441Z,95228.75
2023-04-27T17:47:11.100Z,95223.09
2023-04-27T17:49:39.420Z,95226.63
2023-04-27T17:52:07.704Z,95188.06
2023-04-27T17:54:36.024Z,95236.50
2023-04-27T17:57:04.386Z,95236.94
2023-04-27T17:59:34.211Z,95234.09
2023-04-27T18:02:03.141Z,95253.47
2023-04-27T18:04:31.716Z,95249.06
2023-04-27T18:07:00.158Z,95248.94
2023-04-27T18:09:29.486Z,95262.22
2023-04-27T18:11:59.342Z,95266.41
2023-04-27T18:14:27.776Z,95264.16
2023-04-27T18:16:57.477Z,95112.19
2023-04-27T18:19:25.884Z,95278.22
2023-04-27T18:21:54.180Z,95272.44
2023-04-27T18:24:22.429Z,95276.78
2023-04-27T18:26:50.741Z,95277.16
2023-04-27T18:29:18.963Z,95264.66
2023-04-27T18:31:47.755Z,95287.66
2023-04-27T18:34:17.638Z,95279.22
2023-04-27T18:36:50.933Z,95289.63
2023-04-27T18:39:20.523Z,95297.84
2023-04-27T18:41:48.759Z,95296.53
2023-04-27T18:44:17.300Z,95299.69
2023-04-27T18:46:46.336Z,95303.47
2023-04-27T18:49:14.913Z,95307.00
2023-04-27T18:51:44.717Z,95310.53
2023-04-27T18:54:13.085Z,95317.41
2023-04-27T18:56:41.394Z,95325.78
2023-04-27T18:59:09.780Z,95325.22
2023-04-27T19:01:38.265Z,95331.47
2023-04-27T19:04:07.995Z,95328.56
2023-04-27T19:06:36.470Z,95327.28
2023-04-27T19:09:06.436Z,95315.47
2023-04-27T19:11:34.791Z,95342.69
2023-04-27T19:14:03.000Z,95348.84
2023-04-27T19:16:31.294Z,95343.84
2023-04-27T19:18:59.760Z,95349.22
2023-04-27T19:21:28.060Z,95356.03
2023-04-27T19:23:56.421Z,95354.91
2023-04-27T19:26:29.036Z,95275.53
2023-04-27T19:28:57.926Z,95354.03
2023-04-27T19:31:26.449Z,95362.63
2023-04-27T19:33:55.525Z,95359.91
2023-04-27T19:36:24.748Z,95346.41
2023-04-27T19:38:53.101Z,95374.97
2023-04-27T19:41:22.137Z,95359.78
2023-04-27T19:43:51.832Z,95339.31
2023-04-27T19:46:20.331Z,95364.66
2023-04-27T19:48:48.655Z,95358.16
2023-04-27T19:51:16.899Z,95362.88
2023-04-27T19:53:45.169Z,95368.91
2023-04-27T19:56:13.602Z,95368.00
2023-04-27T19:58:41.863Z,95370.50
2023-04-27T20:01:13.050Z,95364.94
2023-04-27T20:03:42.039Z,95363.25
2023-04-27T20:06:11.367Z,95372.16
2023-04-27T20:08:39.894Z,95363.53
2023-04-27T20:11:08.179Z,95332.25
2023-04-27T20:13:36.419Z,95369.03
2023-04-27T20:16:06.711Z,95319.88
2023-04-27T20:18:36.607Z,95356.16
2023-04-27T20:21:05.120Z,95369.09
2023-04-27T20:23:33.401Z,95389.91
2023-04-27T20:26:01.779Z,95375.00
2023-04-27T20:28:30.622Z,95375.78
2023-04-27T20:30:58.985Z,95374.63
2023-04-27T20:33:27.333Z,95379.00
2023-04-27T20:36:03.593Z,95338.84
2023-04-27T20:38:34.972Z,95381.84
2023-04-27T20:41:03.916Z,95384.75
2023-04-27T20:43:32.756Z,95375.03
2023-04-27T20:46:01.101Z,95403.88
2023-04-27T20:48:29.762Z,95397.50
2023-04-27T20:50:59.909Z,95386.53
2023-04-27T20:53:28.267Z,95399.53
2023-04-27T20:55:57.046Z,95401.97
2023-04-27T20:58:25.327Z,95403.78
2023-04-27T21:00:53.808Z,95409.28
2023-04-27T21:03:22.334Z,95413.25
2023-04-27T21:05:50.715Z,95405.44
2023-04-27T21:08:20.457Z,95337.81
2023-04-27T21:10:48.791Z,95362.31
2023-04-27T21:13:17.554Z,95406.59
2023-04-27T21:15:45.950Z,95415.84
2023-04-27T21:18:26.674Z,95366.78
2023-04-27T21:20:58.283Z,95405.09
2023-04-27T21:23:27.998Z,95340.84
2023-04-27T21:25:56.333Z,95335.84
2023-04-27T21:28:24.627Z,95376.22
2023-04-27T21:30:52.956Z,95415.38
2023-04-27T21:33:21.408Z,95412.06
2023-04-27T21:35:49.725Z,95405.94
2023-04-27T21:38:17.952Z,95403.59
2023-04-27T21:40:48.236Z,95355.69
2023-04-27T21:43:16.548Z,95419.22
2023-04-27T21:45:44.921Z,95421.16
2023-04-27T21:48:13.394Z,95426.94
2023-04-27T21:50:41.565Z,95413.19
2023-04-27T21:53:09.870Z,95420.19
2023-04-27T21:55:38.243Z,95421.38
2023-04-27T21:58:07.949Z,95433.06
2023-04-27T22:00:36.531Z,95434.81
2023-04-27T22:03:05.247Z,95421.50
2023-04-27T22:05:33.678Z,95434.31
2023-04-27T22:08:01.959Z,95439.28
2023-04-27T22:10:30.263Z,95439.41
2023-04-27T22:13:02.569Z,95386.41
2023-04-27T22:15:38.356Z,95433.88
2023-04-27T22:18:06.937Z,95434.13
2023-04-27T22:20:35.290Z,95437.72
2023-04-27T22:23:03.629Z,95439.84
2023-04-27T22:25:32.661Z,95450.09
2023-04-27T22:28:01.679Z,95416.94
2023-04-27T22:30:30.102Z,95447.88
2023-04-27T22:32:59.858Z,95379.59
2023-04-27T22:35:28.262Z,95417.50
2023-04-27T22:37:56.677Z,95432.16
2023-04-27T22:40:25.044Z,95431.69
2023-04-27T22:42:53.469Z,95453.38
2023-04-27T22:45:39.291Z,95448.69
2023-04-27T22:48:09.167Z,95436.50
2023-04-27T22:50:37.550Z,95376.00
2023-04-27T22:53:05.981Z,95439.13
2023-04-27T22:55:34.370Z,95421.25
2023-04-27T22:58:02.684Z,95382.16
2023-04-27T23:00:31.085Z,95448.56
2023-04-27T23:02:59.457Z,95434.47
2023-04-27T23:05:29.398Z,95437.56
2023-04-27T23:07:57.742Z,95385.53
2023-04-27T23:10:26.882Z,95438.78
2023-04-27T23:12:57.189Z,95427.94
2023-04-27T23:15:25.477Z,95402.91
2023-04-27T23:17:53.773Z,95437.63
2023-04-27T23:20:28.024Z,95441.03
2023-04-27T23:22:59.018Z,95430.84
2023-04-27T23:25:27.339Z,95371.28
2023-04-27T23:27:55.821Z,95439.41
2023-04-27T23:30:24.353Z,95438.72
2023-04-27T23:32:52.706Z,95432.84
2023-04-27T23:35:21.283Z,95405.00
2023-04-27T23:37:49.627Z,95439.75
2023-04-27T23:40:19.491Z,95428.63
2023-04-27T23:42:49.137Z,95400.53
2023-04-27T23:45:19.324Z,95432.09
2023-04-27T23:47:47.608Z,95436.94
2023-04-27T23:50:16.889Z,95401.81
2023-04-27T23:52:45.285Z,95438.53
2023-04-27T23:55:13.591Z,95442.59
2023-04-27T23:57:44.384Z,95437.06
